createdAt,value
2022-12-05T00:03:30.346Z,29.7
2022-12-05T00:08:30.283Z,39.3
2022-12-05T00:13:30.190Z,29.8
2022-12-05T00:18:30.426Z,25.6
2022-12-05T00:23:30.181Z,24.5
2022-12-05T00:28:30.210Z,23.7
2022-12-05T00:33:30.288Z,23.1
2022-12-05T00:38:30.177Z,20.4
2022-12-05T00:43:30.144Z,21.2
2022-12-05T00:48:30.267Z,20.1
2022-12-05T00:53:30.188Z,18.7
2022-12-05T00:58:30.135Z,23.5
2022-12-05T01:03:30.316Z,20.7
2022-12-05T01:08:30.133Z,21.9
2022-12-05T01:13:30.144Z,18.8
2022-12-05T01:18:30.266Z,26.0
2022-12-05T01:23:30.201Z,19.7
2022-12-05T01:28:30.077Z,19.2
2022-12-05T01:33:30.256Z,20.8
2022-12-05T01:38:30.115Z,19.6
2022-12-05T01:43:30.038Z,19.8
2022-12-05T01:48:30.018Z,19.2
2022-12-05T01:53:30.127Z,20.1
2022-12-05T01:58:30.004Z,18.0
2022-12-05T02:03:30.119Z,19.9
2022-12-05T02:08:30.056Z,21.1
2022-12-05T02:13:29.964Z,20.6
2022-12-05T02:18:30.174Z,18.9
2022-12-05T02:23:29.995Z,20.7
2022-12-05T02:28:30.023Z,18.4
2022-12-05T02:33:30.146Z,26.1
2022-12-05T02:38:29.986Z,18.9
2022-12-05T02:43:29.928Z,17.9
2022-12-05T02:48:30.169Z,17.9
2022-12-05T02:53:29.894Z,18.0
2022-12-05T02:58:29.927Z,16.5
2022-12-05T03:03:30.017Z,18.2
2022-12-05T03:08:29.899Z,19.1
2022-12-05T03:13:29.877Z,19.5
2022-12-05T03:18:30.093Z,20.2
2022-12-05T03:23:29.880Z,17.7
2022-12-05T03:28:29.835Z,17.0
2022-12-05T03:33:29.964Z,16.1
2022-12-05T03:38:29.880Z,17.5
2022-12-05T03:43:29.940Z,16.4
2022-12-05T03:48:29.911Z,17.5
2022-12-05T03:53:29.824Z,19.7
2022-12-05T03:58:29.813Z,16.7
2022-12-05T04:03:30.203Z,15.5
2022-12-05T04:08:29.989Z,16.2
2022-12-05T04:13:29.759Z,16.9
2022-12-05T04:18:30.473Z,16.0
2022-12-05T04:23:29.746Z,15.7
2022-12-05T04:28:29.792Z,16.6
2022-12-05T04:33:29.919Z,18.0
2022-12-05T04:38:29.697Z,16.5
2022-12-05T04:43:29.707Z,17.9
2022-12-05T04:48:29.841Z,16.3
2022-12-05T04:53:29.750Z,16.8
2022-12-05T04:58:29.683Z,17.2
2022-12-05T05:03:29.630Z,16.3
2022-12-05T05:08:29.697Z,17.0
2022-12-05T05:13:29.685Z,17.4
2022-12-05T05:18:29.791Z,17.0
2022-12-05T05:23:29.628Z,17.8
2022-12-05T05:28:29.730Z,17.2
2022-12-05T05:33:29.809Z,19.9
2022-12-05T05:38:29.603Z,18.5
2022-12-05T05:43:29.634Z,18.5
2022-12-05T05:48:29.595Z,18.6
2022-12-05T05:53:29.759Z,18.7
2022-12-05T05:58:29.649Z,19.6
2022-12-05T06:03:29.680Z,18.5
2022-12-05T06:08:29.714Z,19.1
2022-12-05T06:13:29.560Z,17.7
2022-12-05T06:18:29.511Z,15.6
2022-12-05T06:23:29.636Z,15.3
2022-12-05T06:28:29.601Z,16.0
2022-12-05T06:33:29.550Z,15.4
2022-12-05T06:38:29.688Z,16.7
2022-12-05T06:43:29.853Z,18.1
2022-12-05T06:48:29.458Z,20.3
2022-12-05T06:53:29.554Z,19.4
2022-12-05T06:58:29.519Z,19.5
2022-12-05T07:03:29.472Z,18.4
2022-12-05T07:08:29.754Z,18.3
2022-12-05T07:13:29.502Z,17.7
2022-12-05T07:18:30.044Z,17.4
2022-12-05T07:23:29.552Z,18.1
2022-12-05T07:28:29.709Z,22.5
2022-12-05T07:33:29.696Z,61.4
2022-12-05T07:38:29.412Z,72.8
2022-12-05T07:43:29.563Z,43.7
2022-12-05T07:48:29.666Z,42.0
2022-12-05T07:53:29.463Z,24.7
2022-12-05T07:58:29.453Z,27.0
2022-12-05T08:03:29.554Z,23.5
2022-12-05T08:08:29.509Z,22.3
2022-12-05T08:13:30.773Z,23.1
2022-12-05T08:18:30.382Z,59.0
2022-12-05T08:23:29.746Z,67.5
2022-12-05T08:28:29.465Z,28.6
2022-12-05T08:33:29.419Z,41.5
2022-12-05T08:38:29.336Z,50.8
2022-12-05T08:43:29.294Z,48.7
2022-12-05T08:48:29.804Z,32.8
2022-12-05T08:53:29.318Z,35.9
2022-12-05T08:58:29.245Z,37.2
2022-12-05T09:03:29.458Z,40.4
2022-12-05T09:08:29.292Z,35.5
2022-12-05T09:13:29.260Z,38.6
2022-12-05T09:18:29.233Z,20.6
2022-12-05T09:23:29.361Z,45.6
2022-12-05T09:28:29.239Z,37.1
2022-12-05T09:33:29.399Z,30.2
2022-12-05T09:38:29.728Z,26.2
2022-12-05T09:43:29.272Z,27.5
2022-12-05T09:48:29.199Z,23.6
2022-12-05T09:53:29.177Z,21.7
2022-12-05T09:58:29.189Z,20.9
2022-12-05T10:03:29.461Z,26.1
2022-12-05T10:08:29.151Z,21.6
2022-12-05T10:13:29.135Z,22.0
2022-12-05T10:18:29.238Z,32.5
2022-12-05T10:23:56.151Z,26.3
2022-12-05T10:28:29.221Z,21.3
2022-12-05T10:33:29.473Z,23.2
2022-12-05T10:38:29.118Z,27.9
2022-12-05T10:43:29.078Z,28.0
2022-12-05T10:48:29.226Z,20.7
2022-12-05T10:53:29.071Z,28.6
2022-12-05T10:58:29.593Z,30.3
2022-12-05T11:03:29.220Z,22.3
2022-12-05T11:08:56.095Z,21.6
2022-12-05T11:13:29.089Z,24.8
2022-12-05T11:18:29.289Z,21.2
2022-12-05T11:23:29.038Z,19.1
2022-12-05T11:28:28.996Z,21.6
2022-12-05T11:33:29.847Z,20.0
2022-12-05T11:38:28.995Z,82.8
2022-12-05T11:43:28.993Z,29.1
2022-12-05T11:48:29.317Z,23.8
2022-12-05T11:53:29.519Z,31.0
2022-12-05T11:58:33.237Z,33.2
2022-12-05T12:03:34.067Z,25.0
2022-12-05T12:13:28.988Z,22.3
2022-12-05T12:18:38.119Z,22.4
2022-12-05T12:23:39.422Z,22.9
2022-12-05T12:28:39.960Z,22.6
2022-12-05T12:33:38.053Z,26.6
2022-12-05T12:38:37.900Z,31.2
2022-12-05T12:43:53.610Z,28.8
2022-12-05T12:48:37.874Z,33.9
2022-12-05T12:53:38.032Z,42.7
2022-12-05T12:58:37.857Z,32.8
2022-12-05T13:03:39.924Z,28.8
2022-12-05T13:08:38.135Z,28.0
2022-12-05T13:13:37.890Z,29.3
2022-12-05T13:18:37.838Z,40.6
2022-12-05T13:23:37.949Z,28.9
2022-12-05T13:28:38.073Z,26.9
2022-12-05T13:33:37.808Z,28.8
2022-12-05T13:38:39.196Z,41.5
2022-12-05T13:43:38.524Z,92.5
2022-12-05T13:48:38.585Z,92.4
2022-12-05T13:53:38.474Z,84.3
2022-12-05T13:58:37.934Z,37.5
2022-12-05T14:03:37.783Z,31.5
2022-12-05T14:08:38.383Z,28.9
2022-12-05T14:13:41.910Z,28.2
2022-12-05T14:18:39.211Z,30.1
2022-12-05T14:23:40.012Z,33.4
2022-12-05T14:28:38.996Z,54.8
2022-12-05T14:33:38.471Z,76.1
2022-12-05T14:38:38.663Z,101.5
2022-12-05T14:43:40.147Z,269.9
2022-12-05T14:48:42.490Z,70.9
2022-12-05T14:53:38.520Z,57.1
2022-12-05T14:58:38.477Z,55.4
2022-12-05T15:03:38.386Z,72.7
2022-12-05T15:08:38.529Z,99.7
2022-12-05T15:13:38.387Z,108.9
2022-12-05T15:18:38.295Z,70.7
2022-12-05T15:23:37.643Z,76.5
2022-12-05T15:28:37.626Z,39.3
2022-12-05T15:33:38.324Z,46.4
2022-12-05T15:38:38.331Z,66.9
2022-12-05T15:43:38.253Z,117.9
2022-12-05T15:48:38.498Z,142.8
2022-12-05T15:53:38.294Z,107.5
2022-12-05T15:58:37.558Z,73.7
2022-12-05T16:03:38.488Z,44.7
2022-12-05T16:08:37.614Z,54.8
2022-12-05T16:13:37.892Z,37.0
2022-12-05T16:18:37.750Z,39.8
2022-12-05T16:23:37.464Z,40.8
2022-12-05T16:28:37.499Z,38.4
2022-12-05T16:33:43.172Z,40.0
2022-12-05T16:38:37.527Z,36.1
2022-12-05T16:43:37.477Z,40.7
2022-12-05T16:48:37.624Z,38.7
2022-12-05T16:53:37.476Z,38.0
2022-12-05T16:58:37.455Z,39.5
2022-12-05T17:03:38.244Z,40.5
2022-12-05T17:08:38.186Z,99.1
2022-12-05T17:13:37.534Z,61.1
2022-12-05T17:18:37.429Z,42.9
2022-12-05T17:23:37.573Z,41.5
2022-12-05T17:28:37.472Z,46.2
2022-12-05T17:33:38.358Z,46.2
2022-12-05T17:38:38.220Z,59.3
2022-12-05T17:43:38.103Z,80.5
2022-12-05T17:48:38.181Z,61.5
2022-12-05T17:53:38.073Z,58.5
2022-12-05T17:58:38.094Z,55.9
2022-12-05T18:03:38.260Z,106.5
2022-12-05T18:08:38.225Z,132.6
2022-12-05T18:13:38.105Z,141.2
2022-12-05T18:18:38.288Z,119.2
2022-12-05T18:23:38.640Z,99.1
2022-12-05T18:28:38.495Z,97.6
2022-12-05T18:33:38.189Z,85.6
2022-12-05T18:38:38.143Z,80.4
2022-12-05T18:43:38.069Z,90.9
2022-12-05T18:48:40.116Z,79.1
2022-12-05T18:53:38.372Z,82.3
2022-12-05T18:58:38.270Z,89.9
2022-12-05T19:13:38.764Z,132.8
2022-12-05T19:18:38.340Z,101.8
2022-12-05T19:23:37.964Z,99.5
2022-12-05T19:28:37.998Z,119.4
2022-12-05T19:33:38.808Z,111.8
2022-12-05T19:38:40.875Z,105.9
2022-12-05T19:43:38.052Z,107.9
2022-12-05T19:48:38.094Z,121.6
2022-12-05T19:53:38.095Z,114.3
2022-12-05T19:58:38.497Z,87.7
2022-12-05T20:03:37.905Z,73.4
2022-12-05T20:08:37.277Z,63.9
2022-12-05T20:13:46.419Z,45.7
2022-12-05T20:18:49.078Z,72.0
2022-12-05T20:23:37.803Z,66.3
2022-12-05T20:28:38.249Z,81.8
2022-12-05T20:33:37.803Z,101.4
2022-12-05T20:43:38.931Z,84.3
2022-12-05T20:48:38.164Z,85.0
2022-12-05T20:53:37.758Z,64.5
2022-12-05T20:58:37.023Z,58.0
2022-12-05T21:03:37.735Z,53.9
2022-12-05T21:13:38.454Z,67.1
2022-12-05T21:18:38.198Z,97.6
2022-12-05T21:23:37.813Z,103.1
2022-12-05T21:28:37.695Z,100.0
2022-12-05T21:33:37.788Z,102.8
2022-12-05T21:38:37.737Z,117.6
2022-12-05T21:43:37.827Z,112.9
2022-12-05T21:48:37.661Z,91.5
2022-12-05T21:53:37.740Z,90.0
2022-12-05T21:58:41.854Z,61.1
2022-12-05T22:03:36.977Z,47.3
2022-12-05T22:08:37.064Z,49.7
2022-12-05T22:13:36.906Z,47.4
2022-12-05T22:18:36.872Z,47.1
2022-12-05T22:23:37.056Z,44.4
2022-12-05T22:28:36.919Z,45.0
2022-12-05T22:33:36.926Z,45.5
2022-12-05T22:38:37.751Z,55.3
2022-12-05T22:43:37.881Z,93.6
2022-12-05T22:44:43.442Z,90.8
2022-12-05T22:49:44.243Z,0.0
2022-12-05T22:54:44.130Z,84.9
2022-12-05T22:59:44.115Z,72.4
2022-12-05T23:04:44.273Z,72.4
2022-12-05T23:09:43.374Z,79.5
2022-12-05T23:14:43.358Z,49.4
2022-12-05T23:19:43.469Z,40.3
2022-12-05T23:24:43.323Z,39.1
2022-12-05T23:29:43.428Z,44.8
2022-12-05T23:34:43.526Z,42.7
2022-12-05T23:39:43.370Z,45.9
2022-12-05T23:44:43.393Z,44.7
2022-12-05T23:49:43.705Z,48.1
2022-12-05T23:54:45.741Z,47.1
2022-12-05T23:59:44.019Z,64.4
